createdAt,value
2022-08-01T00:01:15.567Z,100671.22
2022-08-01T00:03:42.853Z,100669.19
2022-08-01T00:06:09.923Z,100669.19
2022-08-01T00:08:37.003Z,100666.31
2022-08-01T00:11:04.223Z,100671.56
2022-08-01T00:13:31.546Z,100674.34
2022-08-01T00:15:58.660Z,100671.94
2022-08-01T00:18:25.657Z,100677.91
2022-08-01T00:20:52.691Z,100687.97
2022-08-01T00:23:19.873Z,100677.47
2022-08-01T00:25:46.885Z,100679.06
2022-08-01T00:28:14.661Z,100681.44
2022-08-01T00:30:42.373Z,100684.66
2022-08-01T00:33:09.474Z,100685.03
2022-08-01T00:35:36.697Z,100680.94
2022-08-01T00:38:03.853Z,100682.09
2022-08-01T00:40:31.007Z,100687.69
2022-08-01T00:42:58.019Z,100681.63
2022-08-01T00:45:25.378Z,100677.22
2022-08-01T00:47:55.207Z,100678.78
2022-08-01T00:50:23.166Z,100687.63
2022-08-01T00:52:52.922Z,100683.59
2022-08-01T00:55:21.694Z,100679.13
2022-08-01T00:58:03.012Z,100681.91
2022-08-01T01:00:52.670Z,100688.69
2022-08-01T01:03:43.557Z,100676.59
2022-08-01T01:06:35.292Z,100682.63
2022-08-01T01:09:48.745Z,100669.28
2022-08-01T01:13:00.316Z,100682.09
2022-08-01T01:15:52.144Z,100674.00
2022-08-01T01:18:33.895Z,100680.75
2022-08-01T01:21:22.368Z,100669.38
2022-08-01T01:24:48.192Z,100673.72
2022-08-01T01:27:58.860Z,100667.97
2022-08-01T01:30:31.990Z,100677.63
2022-08-01T01:33:07.621Z,100674.34
2022-08-01T01:35:46.416Z,100670.31
2022-08-01T01:38:29.070Z,100664.25
2022-08-01T01:41:01.052Z,100668.28
2022-08-01T01:43:33.681Z,100662.25
2022-08-01T01:46:05.815Z,100654.91
2022-08-01T01:48:37.247Z,100656.06
2022-08-01T01:51:06.988Z,100653.25
2022-08-01T01:53:38.048Z,100655.31
2022-08-01T01:56:05.839Z,100651.31
2022-08-01T01:58:38.684Z,100647.63
2022-08-01T02:01:14.876Z,100656.72
2022-08-01T02:03:44.965Z,100648.63
2022-08-01T02:06:17.992Z,100657.03
2022-08-01T02:08:49.103Z,100648.13
2022-08-01T02:11:19.873Z,100662.53
2022-08-01T02:14:01.950Z,100660.06
2022-08-01T02:16:36.604Z,100666.44
2022-08-01T02:19:04.933Z,100661.59
2022-08-01T02:21:45.513Z,100661.53
2022-08-01T02:24:32.511Z,100668.69
2022-08-01T02:27:10.421Z,100660.97
2022-08-01T02:30:06.205Z,100663.41
2022-08-01T02:32:47.678Z,100666.28
2022-08-01T02:35:29.229Z,100667.09
2022-08-01T02:38:02.379Z,100664.31
2022-08-01T02:40:35.502Z,100669.09
2022-08-01T02:43:09.615Z,100663.94
2022-08-01T02:45:46.402Z,100657.88
2022-08-01T02:48:20.182Z,100657.06
2022-08-01T02:50:53.998Z,100657.56
2022-08-01T02:53:44.217Z,100662.63
2022-08-01T02:56:16.466Z,100662.22
2022-08-01T02:58:47.385Z,100659.69
2022-08-01T03:01:19.978Z,100664.69
2022-08-01T03:03:47.883Z,100667.41
2022-08-01T03:06:18.173Z,100660.56
2022-08-01T03:08:47.919Z,100664.97
2022-08-01T03:11:17.190Z,100661.00
2022-08-01T03:13:49.583Z,100668.56
2022-08-01T03:16:20.806Z,100663.81
2022-08-01T03:18:52.898Z,100670.31
2022-08-01T03:21:25.416Z,100667.22
2022-08-01T03:23:58.236Z,100673.63
2022-08-01T03:26:35.910Z,100669.25
2022-08-01T03:29:16.542Z,100667.56
2022-08-01T03:31:48.950Z,100674.44
2022-08-01T03:34:17.599Z,100666.81
2022-08-01T03:36:57.072Z,100672.38
2022-08-01T03:39:38.026Z,100677.44
2022-08-01T03:42:22.045Z,100675.84
2022-08-01T03:45:00.211Z,100678.88
2022-08-01T03:47:40.846Z,100682.78
2022-08-01T03:50:17.723Z,100673.97
2022-08-01T03:52:50.040Z,100676.88
2022-08-01T03:55:21.324Z,100681.34
2022-08-01T03:57:52.195Z,100688.56
2022-08-01T04:00:20.070Z,100680.16
2022-08-01T04:02:50.437Z,100680.91
2022-08-01T04:05:19.581Z,100683.88
2022-08-01T04:08:00.430Z,100679.47
2022-08-01T04:10:27.751Z,100686.03
2022-08-01T04:12:55.462Z,100683.28
2022-08-01T04:15:22.795Z,100684.88
2022-08-01T04:17:49.820Z,100685.31
2022-08-01T04:20:16.928Z,100687.75
2022-08-01T04:22:44.597Z,100695.41
2022-08-01T04:25:33.516Z,100688.63
2022-08-01T04:28:05.216Z,100689.50
2022-08-01T04:30:38.382Z,100685.94
2022-08-01T04:33:11.658Z,100688.38
2022-08-01T04:36:01.527Z,100693.22
2022-08-01T04:38:39.719Z,100688.09
2022-08-01T04:41:13.494Z,100694.44
2022-08-01T04:43:44.300Z,100698.53
2022-08-01T04:46:14.334Z,100703.00
2022-08-01T04:48:42.356Z,100702.66
2022-08-01T04:51:17.820Z,100710.31
2022-08-01T04:53:49.557Z,100710.31
2022-08-01T04:56:16.601Z,100708.34
2022-08-01T04:58:44.931Z,100710.78
2022-08-01T05:01:12.666Z,100709.06
2022-08-01T05:03:39.967Z,100707.50
2022-08-01T05:06:07.569Z,100705.88
2022-08-01T05:08:34.695Z,100714.31
2022-08-01T05:11:02.357Z,100716.78
2022-08-01T05:13:30.011Z,100716.41
2022-08-01T05:15:57.022Z,100714.44
2022-08-01T05:18:26.031Z,100715.66
2022-08-01T05:20:56.273Z,100720.88
2022-08-01T05:23:30.325Z,100709.97
2022-08-01T05:26:15.025Z,100710.88
2022-08-01T05:28:43.542Z,100717.81
2022-08-01T05:31:11.102Z,100710.25
2022-08-01T05:33:38.129Z,100712.75
2022-08-01T05:36:05.932Z,100712.50
2022-08-01T05:38:32.923Z,100714.19
2022-08-01T05:41:00.021Z,100715.03
2022-08-01T05:43:29.085Z,100716.72
2022-08-01T05:45:57.032Z,100718.31
2022-08-01T05:48:24.055Z,100715.59
2022-08-01T05:50:56.738Z,100716.06
2022-08-01T05:53:25.547Z,100716.09
2022-08-01T05:55:52.602Z,100725.03
2022-08-01T05:58:19.642Z,100722.03
2022-08-01T06:00:46.797Z,100723.69
2022-08-01T06:03:15.360Z,100730.78
2022-08-01T06:05:42.515Z,100722.25
2022-08-01T06:08:09.549Z,100737.50
2022-08-01T06:10:37.005Z,100729.09
2022-08-01T06:13:04.310Z,100733.84
2022-08-01T06:15:34.175Z,100730.63
2022-08-01T06:18:01.503Z,100728.63
2022-08-01T06:20:28.558Z,100733.84
2022-08-01T06:22:55.835Z,100731.53
2022-08-01T06:25:23.635Z,100736.88
2022-08-01T06:27:50.832Z,100735.81
2022-08-01T06:30:18.027Z,100744.22
2022-08-01T06:32:45.200Z,100741.81
2022-08-01T06:35:12.395Z,100743.81
2022-08-01T06:37:39.399Z,100738.97
2022-08-01T06:40:16.289Z,100742.19
2022-08-01T06:42:45.223Z,100751.38
2022-08-01T06:45:15.797Z,100752.91
2022-08-01T06:47:50.535Z,100754.59
2022-08-01T06:50:19.576Z,100749.19
2022-08-01T06:52:46.851Z,100755.31
2022-08-01T06:55:14.100Z,100751.97
2022-08-01T06:57:53.805Z,100749.59
2022-08-01T07:00:25.993Z,100751.63
2022-08-01T07:02:57.093Z,100761.22
2022-08-01T07:05:24.996Z,100751.13
2022-08-01T07:07:51.944Z,100767.03
2022-08-01T07:10:19.444Z,100758.88
2022-08-01T07:12:46.685Z,100766.84
2022-08-01T07:15:14.197Z,100759.28
2022-08-01T07:17:43.645Z,100766.44
2022-08-01T07:20:16.415Z,100763.47
2022-08-01T07:22:44.071Z,100764.78
2022-08-01T07:25:15.032Z,100768.91
2022-08-01T07:27:42.022Z,100758.50
2022-08-01T07:30:09.825Z,100759.72
2022-08-01T07:32:37.096Z,100765.38
2022-08-01T07:35:05.585Z,100768.97
2022-08-01T07:37:42.069Z,100774.91
2022-08-01T07:40:19.274Z,100770.13
2022-08-01T07:42:47.498Z,100771.69
2022-08-01T07:45:16.292Z,100774.84
2022-08-01T07:47:44.185Z,100770.50
2022-08-01T07:50:11.637Z,100773.47
2022-08-01T07:52:38.929Z,100774.88
2022-08-01T07:55:07.807Z,100777.00
2022-08-01T07:57:34.870Z,100780.59
2022-08-01T08:00:07.350Z,100780.22
2022-08-01T08:02:34.755Z,100783.06
2022-08-01T08:05:01.831Z,100785.47
2022-08-01T08:07:28.979Z,100785.78
2022-08-01T08:09:56.019Z,100788.47
2022-08-01T08:12:28.917Z,100792.81
2022-08-01T08:14:59.533Z,100794.06
2022-08-01T08:17:27.414Z,100788.59
2022-08-01T08:19:54.818Z,100795.75
2022-08-01T08:22:21.895Z,100799.34
2022-08-01T08:24:48.955Z,100802.81
2022-08-01T08:27:16.647Z,100801.81
2022-08-01T08:29:44.033Z,100804.00
2022-08-01T08:32:13.234Z,100794.44
2022-08-01T08:34:40.471Z,100802.56
2022-08-01T08:37:09.448Z,100803.22
2022-08-01T08:39:42.053Z,100805.03
2022-08-01T08:42:15.562Z,100801.63
2022-08-01T08:44:44.459Z,100807.78
2022-08-01T08:47:20.269Z,100811.13
2022-08-01T08:49:51.003Z,100800.50
2022-08-01T08:52:23.017Z,100805.09
2022-08-01T08:54:53.464Z,100802.16
2022-08-01T08:57:22.549Z,100805.78
2022-08-01T08:59:53.079Z,100804.88
2022-08-01T09:02:20.262Z,100810.44
2022-08-01T09:04:51.449Z,100820.78
2022-08-01T09:07:18.629Z,100817.63
2022-08-01T09:09:45.693Z,100814.91
2022-08-01T09:12:20.698Z,100816.53
2022-08-01T09:14:51.406Z,100818.97
2022-08-01T09:17:18.909Z,100826.94
2022-08-01T09:19:57.512Z,100825.25
2022-08-01T09:22:26.555Z,100834.84
2022-08-01T09:25:09.603Z,100838.03
2022-08-01T09:27:44.386Z,100842.44
2022-08-01T09:30:23.703Z,100846.81
2022-08-01T09:33:11.392Z,100849.16
2022-08-01T09:35:54.749Z,100853.97
2022-08-01T09:38:28.158Z,100855.59
2022-08-01T09:41:02.039Z,100851.25
2022-08-01T09:43:32.838Z,100852.19
2022-08-01T09:46:20.931Z,100856.38
2022-08-01T09:49:00.488Z,100865.69
2022-08-01T09:51:58.851Z,100857.78
2022-08-01T09:54:34.840Z,100856.25
2022-08-01T09:57:21.576Z,100864.75
2022-08-01T09:59:58.735Z,100866.00
2022-08-01T10:02:44.284Z,100860.78
2022-08-01T10:05:20.944Z,100865.16
2022-08-01T10:08:07.708Z,100863.06
2022-08-01T10:10:37.437Z,100870.66
2022-08-01T10:13:05.925Z,100871.44
2022-08-01T10:15:37.970Z,100886.25
2022-08-01T10:18:16.725Z,100887.75
2022-08-01T10:20:56.670Z,100883.66
2022-08-01T10:23:40.082Z,100892.53
2022-08-01T10:26:11.328Z,100892.41
2022-08-01T10:28:40.416Z,100888.41
2022-08-01T10:31:12.556Z,100881.59
2022-08-01T10:33:51.476Z,100883.69
2022-08-01T10:36:25.463Z,100883.47
2022-08-01T10:38:56.475Z,100877.50
2022-08-01T10:41:27.507Z,100885.59
2022-08-01T10:43:56.861Z,100873.97
2022-08-01T10:46:25.153Z,100878.81
2022-08-01T10:49:07.515Z,100879.59
2022-08-01T10:51:52.758Z,100882.81
2022-08-01T10:54:27.464Z,100888.44
2022-08-01T10:56:57.524Z,100879.16
2022-08-01T10:59:50.874Z,100882.78
2022-08-01T11:02:41.685Z,100888.44
2022-08-01T11:05:24.360Z,100890.00
2022-08-01T11:07:56.192Z,100887.63
2022-08-01T11:10:44.222Z,100898.56
2022-08-01T11:13:13.761Z,100897.41
2022-08-01T11:15:50.058Z,100897.09
2022-08-01T11:18:33.897Z,100895.94
2022-08-01T11:21:59.179Z,100898.75
2022-08-01T11:23:54.574Z,100891.13
2022-08-01T11:26:28.922Z,100899.22
2022-08-01T11:29:23.527Z,100899.59
2022-08-01T11:31:52.891Z,100907.25
2022-08-01T11:34:20.395Z,100897.03
2022-08-01T11:36:58.862Z,100909.09
2022-08-01T11:39:27.433Z,100906.25
2022-08-01T11:41:55.701Z,100915.78
2022-08-01T11:44:30.499Z,100915.28
2022-08-01T11:47:11.673Z,100916.88
2022-08-01T11:49:49.027Z,100924.13
2022-08-01T11:52:37.243Z,100918.56
2022-08-01T11:55:11.636Z,100931.56
2022-08-01T11:57:39.974Z,100921.94
2022-08-01T12:00:18.576Z,100920.75
2022-08-01T12:02:57.016Z,100932.03
2022-08-01T12:05:28.520Z,100931.25
2022-08-01T12:07:59.720Z,100929.63
2022-08-01T12:10:49.863Z,100938.09
2022-08-01T12:13:19.114Z,100926.88
2022-08-01T12:15:47.497Z,100932.22
2022-08-01T12:18:15.026Z,100929.47
2022-08-01T12:20:56.769Z,100929.50
2022-08-01T12:23:25.179Z,100921.88
2022-08-01T12:25:55.361Z,100929.16
2022-08-01T12:28:23.902Z,100919.44
2022-08-01T12:30:51.652Z,100929.56
2022-08-01T12:33:21.806Z,100925.09
2022-08-01T12:35:49.534Z,100925.50
2022-08-01T12:38:24.139Z,100934.78
2022-08-01T12:40:51.703Z,100918.22
2022-08-01T12:43:28.674Z,100915.78
2022-08-01T12:46:01.087Z,100921.84
2022-08-01T12:48:32.003Z,100924.69
2022-08-01T12:51:02.362Z,100919.81
2022-08-01T12:53:40.273Z,100929.88
2022-08-01T12:56:09.664Z,100922.59
2022-08-01T12:58:36.784Z,100924.59
2022-08-01T13:01:09.542Z,100917.72
2022-08-01T13:03:37.445Z,100917.16
2022-08-01T13:06:17.915Z,100922.78
2022-08-01T13:08:47.109Z,100911.88
2022-08-01T13:11:18.162Z,100908.97
2022-08-01T13:13:52.858Z,100918.16
2022-08-01T13:16:43.251Z,100921.41
2022-08-01T13:19:14.962Z,100918.22
2022-08-01T13:21:58.407Z,100915.06
2022-08-01T13:24:30.893Z,100914.78
2022-08-01T13:27:05.485Z,100922.94
2022-08-01T13:29:42.642Z,100912.09
2022-08-01T13:32:29.259Z,100920.97
2022-08-01T13:35:13.174Z,100923.00
2022-08-01T13:37:44.256Z,100933.13
2022-08-01T13:40:12.674Z,100931.50
2022-08-01T13:42:39.959Z,100931.09
2022-08-01T13:45:13.997Z,100927.00
2022-08-01T13:48:03.123Z,100920.00
2022-08-01T13:50:28.759Z,100915.56
2022-08-01T13:52:56.144Z,100915.19
2022-08-01T13:55:23.169Z,100912.97
2022-08-01T13:57:51.151Z,100924.06
2022-08-01T14:00:18.377Z,100929.91
2022-08-01T14:02:45.394Z,100930.50
2022-08-01T14:05:12.431Z,100928.38
2022-08-01T14:07:39.641Z,100927.38
2022-08-01T14:10:19.625Z,100927.38
2022-08-01T14:12:48.859Z,100938.06
2022-08-01T14:15:19.000Z,100938.50
2022-08-01T14:18:06.153Z,100939.00
2022-08-01T14:20:35.857Z,100957.56
2022-08-01T14:23:03.415Z,100949.13
2022-08-01T14:26:01.668Z,100945.53
2022-08-01T14:28:18.034Z,100946.34
2022-08-01T14:30:45.426Z,100951.22
2022-08-01T14:33:14.965Z,100955.66
2022-08-01T14:36:01.296Z,100953.59
2022-08-01T14:38:31.341Z,100955.94
2022-08-01T14:41:00.858Z,100959.16
2022-08-01T14:43:32.944Z,100953.47
2022-08-01T14:46:04.582Z,100953.88
2022-08-01T14:48:32.341Z,100956.94
2022-08-01T14:51:03.748Z,100960.16
2022-08-01T14:53:34.373Z,100958.56
2022-08-01T14:56:06.710Z,100961.41
2022-08-01T14:58:34.915Z,100961.38
2022-08-01T15:01:02.881Z,100962.09
2022-08-01T15:03:29.937Z,100954.47
2022-08-01T15:05:57.039Z,100965.50
2022-08-01T15:08:24.377Z,100977.72
2022-08-01T15:10:51.577Z,100971.13
2022-08-01T15:13:18.542Z,100969.66
2022-08-01T15:15:45.898Z,100977.00
2022-08-01T15:18:12.951Z,100974.56
2022-08-01T15:20:40.033Z,100972.53
2022-08-01T15:23:07.141Z,100983.06
2022-08-01T15:25:41.660Z,100978.03
2022-08-01T15:28:13.628Z,100974.44
2022-08-01T15:30:41.751Z,100984.66
2022-08-01T15:33:09.038Z,100984.19
2022-08-01T15:35:36.207Z,100988.97
2022-08-01T15:38:03.489Z,100989.59
2022-08-01T15:40:34.006Z,100988.44
2022-08-01T15:43:01.780Z,100989.66
2022-08-01T15:48:18.452Z,100996.16
2022-08-01T15:50:46.152Z,100995.78
2022-08-01T15:53:13.090Z,100993.78
2022-08-01T15:55:40.506Z,100999.84
2022-08-01T15:58:11.657Z,101002.69
2022-08-01T16:00:40.349Z,100998.66
2022-08-01T16:03:08.599Z,100995.38
2022-08-01T16:05:42.524Z,100993.75
2022-08-01T16:08:13.065Z,100998.19
2022-08-01T16:10:40.893Z,100997.81
2022-08-01T16:13:09.538Z,101003.84
2022-08-01T16:15:39.158Z,100996.16
2022-08-01T16:18:09.984Z,100998.19
2022-08-01T16:20:41.533Z,101000.94
2022-08-01T16:23:15.067Z,101005.38
2022-08-01T16:25:44.692Z,101004.19
2022-08-01T16:28:12.353Z,100997.66
2022-08-01T16:30:52.368Z,101004.91
2022-08-01T16:33:45.042Z,100993.69
2022-08-01T16:36:17.071Z,101000.94
2022-08-01T16:38:45.640Z,100995.72
2022-08-01T16:41:19.296Z,100994.06
2022-08-01T16:43:53.908Z,100998.50
2022-08-01T16:46:26.896Z,100997.69
2022-08-01T16:48:55.002Z,100992.03
2022-08-01T16:51:22.471Z,100993.56
2022-08-01T16:53:49.665Z,101000.81
2022-08-01T16:56:17.019Z,100996.41
2022-08-01T16:58:44.134Z,101001.25
2022-08-01T17:01:59.224Z,100997.97
2022-08-01T17:04:01.515Z,101001.28
2022-08-01T17:06:30.374Z,101004.13
2022-08-01T17:08:57.603Z,100996.47
2022-08-01T17:11:24.666Z,101012.31
2022-08-01T17:13:51.686Z,101009.88
2022-08-01T17:16:18.898Z,101000.19
2022-08-01T17:18:46.061Z,101011.16
2022-08-01T17:21:13.229Z,101002.25
2022-08-01T17:23:40.490Z,101008.78
2022-08-01T17:26:07.615Z,101010.78
2022-08-01T17:28:34.715Z,101006.31
2022-08-01T17:31:01.736Z,101005.13
2022-08-01T17:33:44.587Z,101004.31
2022-08-01T17:36:13.624Z,101006.34
2022-08-01T17:38:40.707Z,101007.56
2022-08-01T17:41:07.755Z,101012.84
2022-08-01T17:43:35.237Z,101010.81
2022-08-01T17:46:02.280Z,101009.19
2022-08-01T17:48:29.538Z,101016.03
2022-08-01T17:50:56.790Z,101021.69
2022-08-01T17:53:24.164Z,101010.75
2022-08-01T17:55:53.705Z,101013.13
2022-08-01T17:58:49.151Z,101017.19
2022-08-01T18:01:18.005Z,101015.97
2022-08-01T18:03:45.909Z,101011.13
2022-08-01T18:06:17.786Z,101014.34
2022-08-01T18:08:48.397Z,101019.97
2022-08-01T18:11:17.298Z,101012.28
2022-08-01T18:13:45.475Z,101007.00
2022-08-01T18:16:13.644Z,101005.38
2022-08-01T18:18:43.841Z,101016.69
2022-08-01T18:21:12.923Z,101022.34
2022-08-01T18:23:42.966Z,101019.09
2022-08-01T18:26:19.544Z,101019.47
2022-08-01T18:28:47.062Z,101021.84
2022-08-01T18:31:17.467Z,101031.50
2022-08-01T18:33:46.186Z,101030.72
2022-08-01T18:36:23.884Z,101026.59
2022-08-01T18:39:06.128Z,101032.94
2022-08-01T18:41:36.849Z,101033.28
2022-08-01T18:44:08.360Z,101040.06
2022-08-01T18:46:40.455Z,101039.25
2022-08-01T18:49:11.997Z,101039.97
2022-08-01T18:51:44.513Z,101035.38
2022-08-01T18:54:14.453Z,101048.22
2022-08-01T18:56:44.103Z,101052.09
2022-08-01T18:59:12.461Z,101048.38
2022-08-01T19:01:40.216Z,101050.31
2022-08-01T19:04:08.843Z,101064.28
2022-08-01T19:06:37.807Z,101060.50
2022-08-01T19:09:06.323Z,101065.59
2022-08-01T19:11:35.542Z,101071.91
2022-08-01T19:14:03.634Z,101066.56
2022-08-01T19:16:31.581Z,101072.53
2022-08-01T19:18:58.722Z,101078.09
2022-08-01T19:21:26.125Z,101074.75
2022-08-01T19:24:11.953Z,101075.84
2022-08-01T19:27:08.622Z,101086.19
2022-08-01T19:29:39.722Z,101086.53
2022-08-01T19:32:12.483Z,101083.94
2022-08-01T19:35:05.472Z,101088.19
2022-08-01T19:37:34.550Z,101092.06
2022-08-01T19:40:02.150Z,101092.78
2022-08-01T19:42:30.452Z,101094.69
2022-08-01T19:44:59.074Z,101099.44
2022-08-01T19:47:26.208Z,101098.84
2022-08-01T19:50:13.824Z,101099.50
2022-08-01T19:52:46.420Z,101103.78
2022-08-01T19:55:15.304Z,101100.81
2022-08-01T19:57:45.477Z,101100.25
2022-08-01T20:00:23.581Z,101116.25
2022-08-01T20:02:58.216Z,101118.53
2022-08-01T20:05:26.369Z,101109.66
2022-08-01T20:07:54.534Z,101117.59
2022-08-01T20:10:22.349Z,101121.94
2022-08-01T20:12:50.261Z,101127.13
2022-08-01T20:15:17.383Z,101130.38
2022-08-01T20:17:45.639Z,101134.03
2022-08-01T20:20:12.757Z,101135.28
2022-08-01T20:22:41.831Z,101147.34
2022-08-01T20:25:10.908Z,101143.06
2022-08-01T20:27:44.771Z,101146.00
2022-08-01T20:30:13.307Z,101148.66
2022-08-01T20:32:41.882Z,101155.81
2022-08-01T20:35:10.240Z,101159.97
2022-08-01T20:38:05.434Z,101153.47
2022-08-01T20:40:30.743Z,101153.41
2022-08-01T20:42:58.787Z,101158.03
2022-08-01T20:45:27.589Z,101163.66
2022-08-01T20:47:56.584Z,101166.09
2022-08-01T20:50:52.751Z,101164.47
2022-08-01T20:53:22.208Z,101173.28
2022-08-01T20:56:27.799Z,101171.16
2022-08-01T20:59:51.597Z,101177.97
2022-08-01T21:03:08.415Z,101178.06
2022-08-01T21:05:55.831Z,101181.06
2022-08-01T21:09:02.204Z,101184.97
2022-08-01T21:11:50.060Z,101197.63
2022-08-01T21:14:23.013Z,101193.41
2022-08-01T21:17:07.478Z,101190.66
2022-08-01T21:19:35.106Z,101187.03
2022-08-01T21:22:38.193Z,101197.06
2022-08-01T21:25:11.061Z,101193.81
2022-08-01T21:27:40.796Z,101199.59
2022-08-01T21:30:09.955Z,101196.78
2022-08-01T21:32:38.799Z,101203.59
2022-08-01T21:35:16.421Z,101198.44
2022-08-01T21:37:52.171Z,101189.47
2022-08-01T21:40:24.506Z,101203.00
2022-08-01T21:42:55.032Z,101208.44
2022-08-01T21:45:27.430Z,101213.50
2022-08-01T21:47:58.244Z,101204.56
2022-08-01T21:50:25.630Z,101214.53
2022-08-01T21:53:32.315Z,101207.19
2022-08-01T21:56:26.077Z,101223.50
2022-08-01T21:59:31.010Z,101214.97
2022-08-01T22:02:53.687Z,101224.84
2022-08-01T22:05:49.707Z,101230.81
2022-08-01T22:08:50.014Z,101234.91
2022-08-01T22:11:33.592Z,101232.47
2022-08-01T22:14:06.424Z,101230.47
2022-08-01T22:16:40.873Z,101227.84
2022-08-01T22:19:09.859Z,101226.84
2022-08-01T22:21:57.531Z,101233.28
2022-08-01T22:24:26.808Z,101233.00
2022-08-01T22:26:56.116Z,101234.28
2022-08-01T22:29:29.230Z,101234.72
2022-08-01T22:31:59.137Z,101236.19
2022-08-01T22:34:26.775Z,101247.59
2022-08-01T22:36:56.127Z,101244.03
2022-08-01T22:39:24.322Z,101247.56
2022-08-01T22:42:03.435Z,101246.94
2022-08-01T22:45:00.692Z,101245.03
2022-08-01T22:48:15.683Z,101249.94
2022-08-01T22:51:30.188Z,101247.56
2022-08-01T22:54:11.690Z,101244.41
2022-08-01T22:56:55.547Z,101250.47
2022-08-01T22:59:48.472Z,101239.75
2022-08-01T23:02:17.725Z,101233.97
2022-08-01T23:04:57.572Z,101234.50
2022-08-01T23:07:34.660Z,101234.25
2022-08-01T23:10:07.942Z,101240.59
2022-08-01T23:12:37.561Z,101243.50
2022-08-01T23:15:06.887Z,101246.66
2022-08-01T23:17:35.360Z,101241.84
2022-08-01T23:20:07.527Z,101241.50
2022-08-01T23:22:37.449Z,101243.72
2022-08-01T23:25:12.052Z,101245.16
2022-08-01T23:27:54.425Z,101239.66
2022-08-01T23:30:35.445Z,101240.59
2022-08-01T23:33:03.737Z,101245.34
2022-08-01T23:35:32.039Z,101246.88
2022-08-01T23:38:03.328Z,101250.63
2022-08-01T23:40:35.101Z,101251.66
2022-08-01T23:43:17.102Z,101249.97
2022-08-01T23:46:04.637Z,101239.66
2022-08-01T23:48:35.793Z,101245.16
2022-08-01T23:51:07.648Z,101250.84
2022-08-01T23:53:38.549Z,101244.66
2022-08-01T23:56:06.153Z,101242.94
2022-08-01T23:58:33.267Z,101244.22
